Overview Statistics Trail Chart Weather Telemetry Raw packets
 

This is the latest recevied telemetry packets stored in our database for station/object OE1KDA-5. If no packets are shown the sender has not sent any telemetry packets the latest 10 day(s).

Telemetry packets is used to share measurements like repeteater parameters, battery voltage, radiation readings (or any other measurements).

<< 1 2 3 4 >>
Time Press* Temp.in* Hum* QNH* Temp.out*
1788594722 998 hPa 26.8 C deg 36.5 % 1019.8 hPa 0 C deg
1788592899 998.3 hPa 26.8 C deg 36.5 % 1020.1 hPa 0 C deg
1788591090 997.7 hPa 26.8 C deg 36.5 % 1019.5 hPa 0 C deg
1788589270 997.5 hPa 27 C deg 36.2 % 1019.3 hPa 0 C deg
1788582014 994.2 hPa 27.3 C deg 37.9 % 1015.8 hPa 0 C deg
1788567494 990.5 hPa 27.7 C deg 37.2 % 1012.1 hPa 0 C deg
1788560225 990.2 hPa 28.1 C deg 35.7 % 1011.7 hPa 0 C deg
1788558441 990 hPa 28.2 C deg 35.7 % 1011.5 hPa 0 C deg
1788556626 989.9 hPa 28.4 C deg 35.1 % 1011.4 hPa 0 C deg
1788554787 989.8 hPa 28.3 C deg 35.1 % 1011.3 hPa 0 C deg
1788552967 989.8 hPa 28.2 C deg 35.4 % 1011.3 hPa 0 C deg
1788551156 989.9 hPa 28.2 C deg 35.4 % 1011.4 hPa 0 C deg
1788549338 989.9 hPa 28.2 C deg 35 % 1011.4 hPa 0 C deg
1788547523 989.6 hPa 28.2 C deg 34.8 % 1011.1 hPa 0 C deg
1788545706 989.5 hPa 28.2 C deg 34.7 % 1011 hPa 0 C deg
1788543895 989.5 hPa 28.3 C deg 34.5 % 1011 hPa 0 C deg
1788542074 989.8 hPa 28.2 C deg 34.5 % 1011.3 hPa 0 C deg
1788540260 990 hPa 28.2 C deg 34.5 % 1011.5 hPa 0 C deg
1788538446 990.3 hPa 28.3 C deg 34.4 % 1011.8 hPa 0 C deg
1788536630 990.7 hPa 28.2 C deg 34.6 % 1012.2 hPa 0 C deg
1788534817 990.8 hPa 28.3 C deg 34.8 % 1012.3 hPa 0 C deg
1788532999 991.3 hPa 28.2 C deg 35 % 1012.8 hPa 0 C deg
1788531188 991.9 hPa 28.1 C deg 35.3 % 1013.5 hPa 0 C deg
1788529369 992.2 hPa 28 C deg 35.6 % 1013.8 hPa 0 C deg
1788527553 992.7 hPa 27.9 C deg 35.7 % 1014.3 hPa 0 C deg
*Used Equation Coefficients:
Press: 0, 1, 0
Temp.in: 0, 1, 0
Hum: 0, 1, 0
QNH: 0, 1, 0
Temp.out: 0, 1, 0

  • The parameter names for the analog channels will be Value1, Value2, Value3 (up to Value5) if station has not sent a PARAM-packet that specifies the parameter names for each analog channel.
  • Each analog value is a decimal number between 000 and 255 (according to APRS specifications). The receiver use the telemetry equation coefficientsto to restore the original sensor values. If no EQNS-packet with equation coefficients is sent we will show the values as is (this corresponds to the equation coefficients a=0, b=1 and c=0).
    The sent equation coefficients is used in the equation: a * value2 + b * value + c.
  • The units for the analog values will not be shown if station has not sent a UNIT-packet specifying what unit's to use.
  • The parameter names for the digital bits will be Bit1, Bit2, Bit3 (up to Bit8) if station has not sent a PARAM-packet that specifies the parameter names for each digital bit.
  • All bit labels will be named "On" if station has not sent a UNIT-packet that specifies the label of each bit.
  • A bit is considered to be On when the bit is 1 if station has not sent a BITS-packet that specifies another "Bit sense" (a BITS-packet specify the state of the bits that match the BIT labels)